createdAt,value
2022-12-18T00:01:51.551Z,101198.77
2022-12-18T00:04:28.400Z,101222.10
2022-12-18T00:07:00.966Z,101226.41
2022-12-18T00:09:40.062Z,101232.66
2022-12-18T00:14:49.439Z,101240.44
2022-12-18T00:17:22.575Z,101240.27
2022-12-18T00:19:55.487Z,101234.86
2022-12-18T00:22:28.230Z,101222.77
2022-12-18T00:25:02.313Z,101230.52
2022-12-18T00:27:35.325Z,101237.11
2022-12-18T00:30:09.205Z,101243.62
2022-12-18T00:32:42.345Z,101258.65
2022-12-18T00:35:15.521Z,101261.45
2022-12-18T00:37:48.356Z,101261.40
2022-12-18T00:40:21.352Z,101264.63
2022-12-18T00:43:00.382Z,101268.48
2022-12-18T00:45:36.017Z,101271.84
2022-12-18T00:48:08.915Z,101263.14
2022-12-18T00:50:42.380Z,101285.58
2022-12-18T00:53:15.850Z,101295.33
2022-12-18T00:55:49.599Z,101297.23
2022-12-18T00:58:22.386Z,101293.13
2022-12-18T01:00:55.624Z,101303.21
2022-12-18T01:03:28.905Z,101303.96
2022-12-18T01:06:01.588Z,101301.05
2022-12-18T01:08:34.571Z,101289.36
2022-12-18T01:11:19.303Z,101288.73
2022-12-18T01:13:52.322Z,101320.98
2022-12-18T01:16:25.551Z,101323.98
2022-12-18T01:18:58.644Z,101326.62
2022-12-18T01:21:33.946Z,101327.02
2022-12-18T01:24:10.359Z,101311.48
2022-12-18T01:26:43.090Z,101296.84
2022-12-18T01:29:15.608Z,101313.07
2022-12-18T01:31:48.148Z,101334.52
2022-12-18T01:34:21.446Z,101340.83
2022-12-18T01:36:54.451Z,101340.67
2022-12-18T01:39:26.914Z,101342.77
2022-12-18T01:42:05.987Z,101336.74
2022-12-18T01:44:59.405Z,101352.06
2022-12-18T01:47:50.741Z,101347.65
2022-12-18T01:50:35.499Z,101308.56
2022-12-18T01:53:16.888Z,101330.52
2022-12-18T01:56:01.154Z,101345.38
2022-12-18T01:58:51.618Z,101350.13
2022-12-18T02:01:26.358Z,101352.59
2022-12-18T02:04:19.043Z,101359.13
2022-12-18T02:07:03.100Z,101364.45
2022-12-18T02:09:43.799Z,101376.38
2022-12-18T02:12:25.649Z,101382.16
2022-12-18T02:15:20.668Z,101383.74
2022-12-18T02:18:07.520Z,101390.95
2022-12-18T02:20:56.237Z,101391.45
2022-12-18T02:23:49.721Z,101395.50
2022-12-18T02:26:33.587Z,101397.78
2022-12-18T02:29:36.185Z,101399.37
2022-12-18T02:32:11.238Z,101399.52
2022-12-18T02:34:46.460Z,101390.80
2022-12-18T02:37:23.853Z,101384.70
2022-12-18T02:39:59.654Z,101409.87
2022-12-18T02:42:33.564Z,101410.06
2022-12-18T02:45:07.288Z,101412.34
2022-12-18T02:47:44.288Z,101418.48
2022-12-18T02:50:48.015Z,101420.22
2022-12-18T02:53:37.859Z,101421.81
2022-12-18T02:56:32.068Z,101430.89
2022-12-18T02:59:15.623Z,101436.86
2022-12-18T03:02:21.021Z,101431.97
2022-12-18T03:05:23.582Z,101446.69
2022-12-18T03:07:59.533Z,101452.64
2022-12-18T03:10:40.482Z,101458.95
2022-12-18T03:13:23.521Z,101464.03
2022-12-18T03:15:59.926Z,101469.64
2022-12-18T03:18:41.467Z,101469.48
2022-12-18T03:21:17.295Z,101485.41
2022-12-18T03:23:53.797Z,101491.19
2022-12-18T03:26:30.650Z,101495.21
2022-12-18T03:29:24.848Z,101498.89
2022-12-18T03:32:04.506Z,101498.71
2022-12-18T03:34:40.202Z,101498.54
2022-12-18T03:37:14.748Z,101506.77
2022-12-18T03:39:47.555Z,101514.30
2022-12-18T03:42:36.812Z,101521.33
2022-12-18T03:45:35.715Z,101503.33
2022-12-18T03:48:21.503Z,101532.36
2022-12-18T03:51:06.941Z,101538.16
2022-12-18T03:53:48.182Z,101541.48
2022-12-18T03:56:25.353Z,101539.40
2022-12-18T03:59:00.379Z,101534.70
2022-12-18T04:01:37.323Z,101541.70
2022-12-18T04:04:12.652Z,101520.35
2022-12-18T04:06:46.489Z,101522.11
2022-12-18T04:09:19.680Z,101541.72
2022-12-18T04:11:54.422Z,101549.94
2022-12-18T04:14:28.392Z,101563.24
2022-12-18T04:17:02.169Z,101568.14
2022-12-18T04:19:36.967Z,101576.73
2022-12-18T04:22:12.077Z,101562.73
2022-12-18T04:24:49.121Z,101584.25
2022-12-18T04:27:29.838Z,101589.67
2022-12-18T04:30:03.818Z,101601.04
2022-12-18T04:32:38.222Z,101609.95
2022-12-18T04:35:11.894Z,101614.52
2022-12-18T04:37:46.245Z,101618.71
2022-12-18T04:40:19.748Z,101617.14
2022-12-18T04:42:53.185Z,101599.81
2022-12-18T04:45:26.198Z,101618.54
2022-12-18T04:48:01.432Z,101624.67
2022-12-18T04:50:34.891Z,101620.65
2022-12-18T04:53:08.287Z,101626.25
2022-12-18T04:55:41.745Z,101622.40
2022-12-18T04:58:14.771Z,101633.95
2022-12-18T05:00:48.114Z,101634.84
2022-12-18T05:03:21.212Z,101624.33
2022-12-18T05:05:55.166Z,101647.25
2022-12-18T05:08:27.815Z,101651.98
2022-12-18T05:11:08.250Z,101655.65
2022-12-18T05:13:42.069Z,101655.30
2022-12-18T05:16:16.847Z,101652.84
2022-12-18T05:18:49.402Z,101660.89
2022-12-18T05:21:22.185Z,101654.92
2022-12-18T05:23:54.812Z,101671.05
2022-12-18T05:26:28.297Z,101675.92
2022-12-18T05:29:01.107Z,101668.73
2022-12-18T05:31:39.734Z,101673.98
2022-12-18T05:34:14.475Z,101690.80
2022-12-18T05:36:47.814Z,101691.50
2022-12-18T05:39:20.621Z,101704.80
2022-12-18T05:41:53.831Z,101709.88
2022-12-18T05:44:26.941Z,101708.48
2022-12-18T05:46:59.909Z,101710.77
2022-12-18T05:49:33.114Z,101713.73
2022-12-18T05:52:06.191Z,101721.09
2022-12-18T05:54:39.358Z,101733.89
2022-12-18T05:57:12.358Z,101723.90
2022-12-18T05:59:45.976Z,101710.73
2022-12-18T06:02:19.075Z,101754.20
2022-12-18T06:04:52.471Z,101753.65
2022-12-18T06:07:25.552Z,101762.58
2022-12-18T06:09:58.485Z,101754.31
2022-12-18T06:12:31.342Z,101764.82
2022-12-18T06:15:04.932Z,101781.10
2022-12-18T06:17:39.388Z,101787.21
2022-12-18T06:20:12.905Z,101789.48
2022-12-18T06:22:46.373Z,101786.68
2022-12-18T06:25:19.471Z,101787.72
2022-12-18T06:27:52.510Z,101795.06
2022-12-18T06:30:25.699Z,101804.86
2022-12-18T06:32:58.815Z,101809.02
2022-12-18T06:35:32.247Z,101809.77
2022-12-18T06:38:09.112Z,101812.94
2022-12-18T06:40:42.785Z,101821.54
2022-12-18T06:43:16.193Z,101813.27
2022-12-18T06:45:53.995Z,101835.04
2022-12-18T06:48:27.429Z,101826.09
2022-12-18T06:51:00.440Z,101829.63
2022-12-18T06:53:34.358Z,101834.00
2022-12-18T06:56:10.606Z,101848.90
2022-12-18T06:58:44.429Z,101845.77
2022-12-18T07:01:18.059Z,101847.85
2022-12-18T07:03:55.080Z,101862.92
2022-12-18T07:06:28.951Z,101868.34
2022-12-18T07:09:01.895Z,101870.96
2022-12-18T07:11:36.936Z,101863.61
2022-12-18T07:14:09.956Z,101878.55
2022-12-18T07:16:43.059Z,101886.65
2022-12-18T07:19:16.565Z,101891.21
2022-12-18T07:21:49.744Z,101894.77
2022-12-18T07:24:22.748Z,101887.60
2022-12-18T07:26:55.777Z,101879.23
2022-12-18T07:29:28.545Z,101873.80
2022-12-18T07:32:01.556Z,101868.20
2022-12-18T07:34:34.815Z,101896.09
2022-12-18T07:37:08.613Z,101898.73
2022-12-18T07:39:41.849Z,101907.85
2022-12-18T07:42:32.953Z,101894.16
2022-12-18T07:45:06.712Z,101896.97
2022-12-18T07:47:39.507Z,101917.13
2022-12-18T07:50:12.669Z,101908.53
2022-12-18T07:52:44.810Z,101912.90
2022-12-18T07:55:17.797Z,101929.21
2022-12-18T07:57:52.683Z,101932.89
2022-12-18T08:00:30.624Z,101940.08
2022-12-18T08:03:03.266Z,101946.95
2022-12-18T08:05:35.831Z,101949.60
2022-12-18T08:08:08.835Z,101943.09
2022-12-18T08:10:44.724Z,101954.33
2022-12-18T08:13:17.602Z,101963.80
2022-12-18T08:15:59.962Z,101966.80
2022-12-18T08:18:31.794Z,101969.95
2022-12-18T08:21:16.706Z,101976.80
2022-12-18T08:23:50.301Z,101971.00
2022-12-18T08:26:24.293Z,101973.47
2022-12-18T08:28:58.983Z,101975.92
2022-12-18T08:31:33.145Z,101980.13
2022-12-18T08:34:07.105Z,101985.73
2022-12-18T08:36:40.369Z,101971.52
2022-12-18T08:39:13.178Z,101976.45
2022-12-18T08:42:10.333Z,101977.47
2022-12-18T08:44:44.311Z,101975.19
2022-12-18T08:47:17.349Z,101962.39
2022-12-18T08:49:49.937Z,101975.20
2022-12-18T08:52:22.843Z,101965.36
2022-12-18T08:54:55.399Z,101965.20
2022-12-18T08:57:28.234Z,101978.20
2022-12-18T09:00:00.837Z,101984.66
2022-12-18T09:02:34.247Z,101968.70
2022-12-18T09:05:07.837Z,101968.90
2022-12-18T09:07:40.971Z,101985.04
2022-12-18T09:10:14.140Z,101984.16
2022-12-18T09:12:47.189Z,101979.42
2022-12-18T09:15:20.772Z,101982.58
2022-12-18T09:17:54.410Z,101987.45
2022-12-18T09:20:30.120Z,101990.80
2022-12-18T09:23:03.482Z,101998.55
2022-12-18T09:25:37.777Z,101975.39
2022-12-18T09:28:19.705Z,101986.80
2022-12-18T09:30:53.010Z,101992.94
2022-12-18T09:33:25.908Z,101994.86
2022-12-18T09:35:59.056Z,101992.23
2022-12-18T09:38:31.779Z,101993.10
2022-12-18T09:41:27.220Z,102000.48
2022-12-18T09:44:08.595Z,102004.51
2022-12-18T09:46:47.165Z,101997.50
2022-12-18T09:49:25.775Z,102011.87
2022-12-18T09:52:23.931Z,102001.64
2022-12-18T09:55:30.925Z,101993.58
2022-12-18T09:58:23.608Z,101988.50
2022-12-18T10:00:57.384Z,102013.06
2022-12-18T10:03:30.126Z,102017.14
2022-12-18T10:06:35.069Z,102014.29
2022-12-18T10:09:21.697Z,102028.16
2022-12-18T10:12:10.070Z,102032.40
2022-12-18T10:15:26.133Z,102030.14
2022-12-18T10:18:22.228Z,102040.64
2022-12-18T10:21:35.120Z,102036.41
2022-12-18T10:24:25.177Z,102038.43
2022-12-18T10:27:10.624Z,102046.60
2022-12-18T10:29:44.456Z,102045.76
2022-12-18T10:32:26.644Z,102056.23
2022-12-18T10:35:01.300Z,102060.06
2022-12-18T10:37:34.076Z,102060.48
2022-12-18T10:40:14.296Z,102051.26
2022-12-18T10:43:17.007Z,102054.11
2022-12-18T10:46:14.375Z,102063.92
2022-12-18T10:48:59.775Z,102064.27
2022-12-18T10:51:38.911Z,102076.94
2022-12-18T10:54:24.825Z,102074.58
2022-12-18T10:57:20.757Z,102077.44
2022-12-18T10:59:58.260Z,102092.30
2022-12-18T11:02:41.918Z,102089.48
2022-12-18T11:05:33.812Z,102085.15
2022-12-18T11:08:07.859Z,102088.50
2022-12-18T11:10:42.261Z,102061.86
2022-12-18T11:13:21.254Z,102068.67
2022-12-18T11:15:55.125Z,102070.72
2022-12-18T11:18:36.242Z,102093.02
2022-12-18T11:21:13.264Z,102084.89
2022-12-18T11:23:56.880Z,102082.10
2022-12-18T11:26:41.078Z,102075.52
2022-12-18T11:29:20.236Z,102086.10
2022-12-18T11:31:54.531Z,102081.73
2022-12-18T11:34:34.621Z,102094.95
2022-12-18T11:37:07.884Z,102104.91
2022-12-18T11:39:49.812Z,102103.55
2022-12-18T11:42:39.339Z,102108.30
2022-12-18T11:45:14.657Z,102109.30
2022-12-18T11:48:07.209Z,102112.19
2022-12-18T11:50:57.760Z,102114.89
2022-12-18T11:53:33.177Z,102128.92
2022-12-18T11:56:28.906Z,102135.39
2022-12-18T11:59:28.617Z,102123.20
2022-12-18T12:02:35.122Z,102112.41
2022-12-18T12:05:32.221Z,102110.72
2022-12-18T12:08:26.846Z,102123.83
2022-12-18T12:11:30.728Z,102126.27
2022-12-18T12:14:21.041Z,102121.31
2022-12-18T12:17:26.360Z,102129.16
2022-12-18T12:20:56.899Z,102128.94
2022-12-18T12:23:44.048Z,102143.52
2022-12-18T12:26:33.787Z,102149.23
2022-12-18T12:29:15.460Z,102155.43
2022-12-18T12:31:58.812Z,102165.66
2022-12-18T12:35:00.992Z,102168.98
2022-12-18T12:37:55.800Z,102167.27
2022-12-18T12:43:50.191Z,102188.66
2022-12-18T12:46:26.852Z,102183.86
2022-12-18T12:49:05.885Z,102186.56
2022-12-18T12:51:43.257Z,102180.23
2022-12-18T12:54:29.397Z,102177.38
2022-12-18T12:57:24.282Z,102190.67
2022-12-18T13:00:16.340Z,102198.13
2022-12-18T13:03:10.400Z,102201.95
2022-12-18T13:06:03.693Z,102209.46
2022-12-18T13:09:03.127Z,102222.83
2022-12-18T13:12:07.508Z,102215.23
2022-12-18T13:14:44.705Z,102233.83
2022-12-18T13:17:25.593Z,102234.56
2022-12-18T13:20:16.670Z,102239.52
2022-12-18T13:22:53.618Z,102229.02
2022-12-18T13:25:42.234Z,102237.70
2022-12-18T13:28:19.094Z,102242.76
2022-12-18T13:30:57.382Z,102243.19
2022-12-18T13:33:30.359Z,102249.56
2022-12-18T13:36:30.542Z,102251.20
2022-12-18T13:39:40.573Z,102256.08
2022-12-18T13:42:33.141Z,102258.70
2022-12-18T13:45:43.676Z,102266.04
2022-12-18T13:48:19.527Z,102265.23
2022-12-18T13:51:11.826Z,102258.14
2022-12-18T13:53:52.933Z,102263.80
2022-12-18T13:56:36.398Z,102269.81
2022-12-18T13:59:25.061Z,102263.23
2022-12-18T14:01:59.534Z,102271.17
2022-12-18T14:04:39.954Z,102285.05
2022-12-18T14:07:34.906Z,102280.75
2022-12-18T14:10:45.620Z,102297.70
2022-12-18T14:13:30.925Z,102295.33
2022-12-18T14:16:07.082Z,102302.52
2022-12-18T14:18:46.769Z,102303.52
2022-12-18T14:21:36.948Z,102295.90
2022-12-18T14:24:20.900Z,102303.88
2022-12-18T14:26:54.316Z,102300.71
2022-12-18T14:29:31.052Z,102300.88
2022-12-18T14:32:21.266Z,102296.03
2022-12-18T14:34:59.884Z,102301.47
2022-12-18T14:37:32.799Z,102314.95
2022-12-18T14:40:15.146Z,102286.31
2022-12-18T14:42:47.984Z,102311.41
2022-12-18T14:45:47.879Z,102325.75
2022-12-18T14:48:35.677Z,102332.77
2022-12-18T14:51:27.714Z,102338.04
2022-12-18T14:54:18.634Z,102319.77
2022-12-18T14:57:09.391Z,102336.36
2022-12-18T14:59:42.451Z,102340.95
2022-12-18T15:02:27.445Z,102328.03
2022-12-18T15:05:39.264Z,102328.21
2022-12-18T15:08:33.084Z,102330.09
2022-12-18T15:11:11.777Z,102349.73
2022-12-18T15:13:47.545Z,102353.16
2022-12-18T15:16:21.509Z,102356.90
2022-12-18T15:18:55.473Z,102363.05
2022-12-18T15:21:32.401Z,102367.94
2022-12-18T15:24:05.509Z,102373.09
2022-12-18T15:26:40.843Z,102376.60
2022-12-18T15:29:28.274Z,102378.88
2022-12-18T15:32:08.443Z,102380.92
2022-12-18T15:34:41.538Z,102384.95
2022-12-18T15:37:14.258Z,102386.80
2022-12-18T15:39:46.877Z,102384.68
2022-12-18T15:42:37.987Z,102387.65
2022-12-18T15:45:16.054Z,102383.95
2022-12-18T15:47:49.229Z,102399.50
2022-12-18T15:50:22.626Z,102405.22
2022-12-18T15:52:57.231Z,102393.65
2022-12-18T15:55:48.903Z,102389.83
2022-12-18T15:58:22.089Z,102412.55
2022-12-18T16:00:54.992Z,102412.14
2022-12-18T16:03:28.106Z,102429.52
2022-12-18T16:06:04.099Z,102430.04
2022-12-18T16:08:37.013Z,102420.33
2022-12-18T16:11:21.102Z,102428.84
2022-12-18T16:13:53.702Z,102437.33
2022-12-18T16:16:26.582Z,102455.13
2022-12-18T16:19:00.491Z,102459.63
2022-12-18T16:21:34.370Z,102445.30
2022-12-18T16:24:07.382Z,102462.84
2022-12-18T16:26:39.995Z,102476.27
2022-12-18T16:29:12.871Z,102463.95
2022-12-18T16:31:46.942Z,102464.38
2022-12-18T16:34:26.813Z,102471.86
2022-12-18T16:37:06.181Z,102475.30
2022-12-18T16:39:40.104Z,102474.83
2022-12-18T16:42:21.588Z,102478.27
2022-12-18T16:44:54.473Z,102473.09
2022-12-18T16:47:27.719Z,102476.73
2022-12-18T16:50:00.893Z,102496.56
2022-12-18T16:52:34.405Z,102482.59
2022-12-18T16:55:07.888Z,102490.25
2022-12-18T16:57:40.885Z,102491.67
2022-12-18T17:00:14.938Z,102502.61
2022-12-18T17:02:48.230Z,102489.54
2022-12-18T17:05:21.689Z,102501.97
2022-12-18T17:07:55.025Z,102499.80
2022-12-18T17:10:28.225Z,102499.35
2022-12-18T17:13:01.619Z,102496.45
2022-12-18T17:15:38.204Z,102505.64
2022-12-18T17:18:12.048Z,102516.09
2022-12-18T17:20:46.385Z,102516.71
2022-12-18T17:23:19.172Z,102502.50
2022-12-18T17:25:56.931Z,102520.30
2022-12-18T17:28:30.761Z,102522.39
2022-12-18T17:31:04.126Z,102519.81
2022-12-18T17:33:37.364Z,102521.73
2022-12-18T17:36:13.709Z,102532.64
2022-12-18T17:38:53.178Z,102523.50
2022-12-18T17:41:27.173Z,102544.34
2022-12-18T17:44:06.512Z,102536.16
2022-12-18T17:46:40.224Z,102541.23
2022-12-18T17:49:14.460Z,102539.73
2022-12-18T17:51:47.899Z,102532.32
2022-12-18T17:54:21.612Z,102547.11
2022-12-18T17:56:55.667Z,102536.60
2022-12-18T17:59:29.467Z,102547.02
2022-12-18T18:02:03.077Z,102552.02
2022-12-18T18:04:36.437Z,102534.14
2022-12-18T18:07:10.029Z,102550.77
2022-12-18T18:09:44.753Z,102546.42
2022-12-18T18:12:36.237Z,102567.36
2022-12-18T18:15:09.705Z,102564.85
2022-12-18T18:17:43.232Z,102571.36
2022-12-18T18:20:22.740Z,102554.47
2022-12-18T18:22:56.852Z,102564.96
2022-12-18T18:25:30.027Z,102565.51
2022-12-18T18:28:03.088Z,102569.22
2022-12-18T18:30:35.731Z,102568.41
2022-12-18T18:33:12.067Z,102576.77
2022-12-18T18:35:54.568Z,102580.60
2022-12-18T18:38:29.727Z,102581.77
2022-12-18T18:41:04.181Z,102580.15
2022-12-18T18:43:37.425Z,102569.53
2022-12-18T18:46:12.087Z,102583.91
2022-12-18T18:48:45.639Z,102592.34
2022-12-18T18:51:21.315Z,102584.01
2022-12-18T18:53:56.449Z,102599.77
2022-12-18T18:59:30.317Z,102612.75
2022-12-18T19:02:06.948Z,102601.84
2022-12-18T19:04:45.052Z,102607.87
2022-12-18T19:07:30.291Z,102587.73
2022-12-18T19:10:05.822Z,102620.77
2022-12-18T19:12:57.947Z,102625.92
2022-12-18T19:15:31.055Z,102628.92
2022-12-18T19:18:04.515Z,102624.31
2022-12-18T19:20:37.713Z,102632.36
2022-12-18T19:23:10.426Z,102656.04
2022-12-18T19:25:43.475Z,102642.39
2022-12-18T19:28:21.746Z,102635.08
2022-12-18T19:30:59.585Z,102661.83
2022-12-18T19:33:42.791Z,102659.42
2022-12-18T19:36:29.338Z,102649.35
2022-12-18T19:39:10.248Z,102667.92
2022-12-18T19:41:44.991Z,102642.89
2022-12-18T19:44:19.400Z,102667.80
2022-12-18T19:46:55.322Z,102671.48
2022-12-18T19:49:28.977Z,102675.43
2022-12-18T19:52:02.502Z,102673.45
2022-12-18T19:54:35.679Z,102675.12
2022-12-18T19:57:11.720Z,102681.34
2022-12-18T19:59:44.891Z,102675.77
2022-12-18T20:02:21.746Z,102678.69
2022-12-18T20:04:55.781Z,102693.72
2022-12-18T20:07:28.804Z,102693.08
2022-12-18T20:10:07.096Z,102698.73
2022-12-18T20:12:42.187Z,102689.96
2022-12-18T20:15:15.262Z,102719.13
2022-12-18T20:17:48.227Z,102717.30
2022-12-18T20:20:21.285Z,102718.05
2022-12-18T20:22:54.809Z,102720.77
2022-12-18T20:25:27.650Z,102709.77
2022-12-18T20:28:00.977Z,102698.39
2022-12-18T20:30:34.028Z,102719.90
2022-12-18T20:33:07.340Z,102717.23
2022-12-18T20:35:40.366Z,102717.91
2022-12-18T20:38:13.658Z,102729.87
2022-12-18T20:40:47.358Z,102736.54
2022-12-18T20:43:20.380Z,102739.65
2022-12-18T20:45:53.754Z,102742.16
2022-12-18T20:48:26.816Z,102749.90
2022-12-18T20:51:04.210Z,102751.06
2022-12-18T20:53:37.843Z,102745.25
2022-12-18T20:56:21.504Z,102747.20
2022-12-18T20:58:58.163Z,102744.84
2022-12-18T21:01:32.054Z,102739.33
2022-12-18T21:04:05.296Z,102738.26
2022-12-18T21:06:38.751Z,102733.70
2022-12-18T21:09:11.664Z,102739.69
2022-12-18T21:12:03.732Z,102716.71
2022-12-18T21:14:36.778Z,102750.30
2022-12-18T21:17:10.089Z,102740.73
2022-12-18T21:19:43.509Z,102742.86
2022-12-18T21:22:17.002Z,102748.35
2022-12-18T21:24:49.875Z,102744.92
2022-12-18T21:27:22.724Z,102745.22
2022-12-18T21:29:56.064Z,102742.35
2022-12-18T21:32:33.611Z,102733.01
2022-12-18T21:35:07.316Z,102740.25
2022-12-18T21:37:40.112Z,102746.95
2022-12-18T21:40:13.770Z,102745.75
2022-12-18T21:43:05.495Z,102753.16
2022-12-18T21:45:38.304Z,102747.20
2022-12-18T21:48:12.543Z,102747.21
2022-12-18T21:50:45.329Z,102751.98
2022-12-18T21:53:18.723Z,102753.72
2022-12-18T21:56:01.917Z,102760.34
2022-12-18T21:58:34.739Z,102746.09
2022-12-18T22:01:07.532Z,102747.73
2022-12-18T22:03:40.866Z,102748.69
2022-12-18T22:06:14.529Z,102739.48
2022-12-18T22:08:47.664Z,102755.55
2022-12-18T22:11:21.136Z,102760.66
2022-12-18T22:13:55.605Z,102764.42
2022-12-18T22:16:29.696Z,102771.22
2022-12-18T22:19:03.208Z,102770.23
2022-12-18T22:21:37.904Z,102779.67
2022-12-18T22:24:19.765Z,102761.48
2022-12-18T22:26:55.833Z,102761.73
2022-12-18T22:29:55.556Z,102775.13
2022-12-18T22:32:31.274Z,102761.88
2022-12-18T22:35:12.679Z,102782.47
2022-12-18T22:37:50.395Z,102774.34
2022-12-18T22:40:28.243Z,102774.86
2022-12-18T22:43:01.805Z,102770.92
2022-12-18T22:45:35.709Z,102769.30
2022-12-18T22:48:11.811Z,102770.14
2022-12-18T22:50:45.752Z,102769.11
2022-12-18T22:53:18.549Z,102770.55
2022-12-18T22:55:51.774Z,102766.39
2022-12-18T22:58:26.068Z,102749.13
2022-12-18T23:00:59.172Z,102767.75
2022-12-18T23:03:33.780Z,102770.79
2022-12-18T23:06:08.442Z,102760.52
2022-12-18T23:08:41.641Z,102756.10
2022-12-18T23:11:15.572Z,102767.50
2022-12-18T23:13:50.764Z,102768.48
2022-12-18T23:16:27.424Z,102771.88
2022-12-18T23:19:00.826Z,102753.23
2022-12-18T23:21:33.918Z,102774.07
2022-12-18T23:24:07.214Z,102773.96
2022-12-18T23:26:40.539Z,102782.02
2022-12-18T23:29:13.231Z,102779.52
2022-12-18T23:31:46.456Z,102776.99
2022-12-18T23:34:19.321Z,102780.02
2022-12-18T23:36:55.963Z,102785.20
2022-12-18T23:39:30.535Z,102798.48
2022-12-18T23:42:03.927Z,102801.89
2022-12-18T23:44:36.981Z,102798.58
2022-12-18T23:47:09.812Z,102806.99
2022-12-18T23:49:43.161Z,102810.48
2022-12-18T23:52:17.055Z,102786.16
2022-12-18T23:54:49.850Z,102801.92
2022-12-18T23:57:23.589Z,102807.09
2022-12-18T23:59:59.333Z,102818.52
